Time;durP1;ratioP1;P1;durP2;ratioP2;P2;SDS_P1;SDS_P2;PMS_P1;PMS_P2;Temp;Humidity;BMP_temperature;BMP_pressure;BME280_temperature;BME280_humidity;BME280_pressure;Samples;Min_cycle;Max_cycle;Signal;HPM_P1;HPM_P2
2021/11/11 00:01:42;;;;;;;16.60;9.35;;;7.80;96.50;;;;;;5036862;28;20077;-82
2021/11/11 00:04:11;;;;;;;16.70;9.82;;;7.70;96.50;;;;;;5051449;28;20055;-82
2021/11/11 00:06:38;;;;;;;15.50;9.40;;;7.70;96.50;;;;;;5033307;28;20085;-83
2021/11/11 00:09:07;;;;;;;15.40;10.25;;;7.70;96.70;;;;;;5053803;28;20101;-83
2021/11/11 00:11:33;;;;;;;19.52;11.25;;;7.70;96.80;;;;;;5036941;28;20040;-83
2021/11/11 00:13:58;;;;;;;18.90;10.73;;;7.70;96.80;;;;;;5068308;28;20022;-83
2021/11/11 00:16:24;;;;;;;15.82;9.82;;;7.70;96.80;;;;;;5038203;28;20111;-83
2021/11/11 00:18:49;;;;;;;15.27;9.70;;;7.60;96.90;;;;;;5036193;28;20036;-83
2021/11/11 00:21:15;;;;;;;14.18;9.55;;;7.60;96.70;;;;;;5073317;28;20056;-82
2021/11/11 00:23:42;;;;;;;13.05;8.77;;;7.60;96.70;;;;;;5042038;28;20021;-83
2021/11/11 00:26:08;;;;;;;19.33;9.38;;;7.60;96.50;;;;;;5075458;28;20014;-83
2021/11/11 00:28:36;;;;;;;19.30;9.90;;;7.50;96.60;;;;;;5076105;28;20052;-82
2021/11/11 00:31:02;;;;;;;15.00;9.45;;;7.50;96.60;;;;;;5075748;28;20023;-83
2021/11/11 00:33:28;;;;;;;18.95;10.80;;;7.50;96.60;;;;;;5037507;28;20030;-82
2021/11/11 00:36:21;;;;;;;17.63;10.35;;;7.40;96.50;;;;;;5062774;28;20079;-83
2021/11/11 00:38:47;;;;;;;19.83;11.05;;;7.40;96.60;;;;;;5079234;28;20018;-87
2021/11/11 00:41:14;;;;;;;18.75;11.15;;;7.40;96.70;;;;;;5047503;28;20036;-87
2021/11/11 00:43:41;;;;;;;16.73;10.68;;;7.40;96.70;;;;;;5063752;28;20394;-87
2021/11/11 00:46:07;;;;;;;23.40;11.75;;;7.40;96.70;;;;;;5069829;28;20020;-86
2021/11/11 00:48:37;;;;;;;21.70;12.30;;;7.40;96.90;;;;;;5089611;28;20046;-87
2021/11/11 00:51:03;;;;;;;22.00;12.13;;;7.30;96.80;;;;;;5071498;28;20036;-87
2021/11/11 00:53:35;;;;;;;17.00;11.27;;;7.30;96.80;;;;;;5071151;28;20021;-87
2021/11/11 00:56:03;;;;;;;18.45;11.38;;;7.30;96.90;;;;;;5070728;28;20028;-87
2021/11/11 00:58:29;;;;;;;21.70;12.57;;;7.30;96.90;;;;;;5052625;28;20088;-87
2021/11/11 01:00:55;;;;;;;21.85;12.95;;;7.30;97.00;;;;;;5062123;28;20044;-87
2021/11/11 01:03:30;;;;;;;20.77;12.63;;;7.30;97.10;;;;;;5058010;28;20021;-86
2021/11/11 01:05:59;;;;;;;23.60;12.65;;;7.30;97.10;;;;;;5068702;28;20040;-87
2021/11/11 01:08:27;;;;;;;20.75;12.77;;;7.20;97.00;;;;;;5058311;28;20126;-87
2021/11/11 01:10:56;;;;;;;19.25;11.98;;;7.20;97.00;;;;;;5066597;28;20029;-87
2021/11/11 01:13:21;;;;;;;23.38;13.32;;;7.20;97.10;;;;;;5055104;28;20422;-87
2021/11/11 01:15:47;;;;;;;24.90;12.80;;;7.20;97.20;;;;;;5058060;28;20075;-87
2021/11/11 01:18:13;;;;;;;19.35;11.70;;;7.20;97.20;;;;;;5065996;28;20120;-87
2021/11/11 01:20:39;;;;;;;23.15;13.27;;;7.20;97.30;;;;;;5069408;28;20042;-87
2021/11/11 01:23:05;;;;;;;21.38;12.05;;;7.20;97.40;;;;;;5067959;28;20025;-88
2021/11/11 01:25:35;;;;;;;23.70;13.40;;;7.10;97.30;;;;;;5046350;28;20055;-88
2021/11/11 01:28:01;;;;;;;22.08;12.88;;;7.10;97.30;;;;;;5066489;28;20021;-88
2021/11/11 01:30:27;;;;;;;23.75;13.02;;;7.10;97.30;;;;;;5055991;28;20033;-88
2021/11/11 01:32:53;;;;;;;25.30;13.30;;;7.10;97.30;;;;;;5064769;28;20020;-87
2021/11/11 01:35:19;;;;;;;20.25;12.85;;;7.10;97.50;;;;;;5065416;28;20112;-87
2021/11/11 01:37:45;;;;;;;21.83;12.48;;;7.10;97.70;;;;;;5069365;28;20019;-87
2021/11/11 01:40:13;;;;;;;24.98;12.90;;;7.10;97.70;;;;;;5069255;28;20032;-87
2021/11/11 01:42:46;;;;;;;21.35;13.32;;;7.10;97.80;;;;;;5070641;28;20048;-87
2021/11/11 01:45:13;;;;;;;24.67;13.75;;;7.10;97.90;;;;;;5073710;28;20027;-87
2021/11/11 01:47:39;;;;;;;22.08;12.57;;;7.10;98.00;;;;;;5058788;28;20096;-87
2021/11/11 01:50:06;;;;;;;23.80;13.10;;;7.10;98.20;;;;;;5059686;28;20042;-88
2021/11/11 01:52:32;;;;;;;35.17;12.70;;;7.10;98.20;;;;;;5073900;28;20017;-87
2021/11/11 01:54:58;;;;;;;22.83;12.27;;;7.10;98.30;;;;;;5073313;28;20025;-87
2021/11/11 01:57:25;;;;;;;19.83;12.15;;;7.10;98.30;;;;;;5069366;28;20066;-82
2021/11/11 01:59:52;;;;;;;18.75;11.93;;;7.20;98.40;;;;;;5072029;28;20028;-88
2021/11/11 02:02:29;;;;;;;18.63;11.35;;;7.10;98.30;;;;;;5076982;28;20366;-84
2021/11/11 02:04:56;;;;;;;21.23;12.00;;;7.10;98.20;;;;;;5079201;28;20120;-83
2021/11/11 02:07:22;;;;;;;21.65;12.02;;;7.10;98.10;;;;;;5090677;28;20016;-83
2021/11/11 02:09:48;;;;;;;19.27;12.88;;;7.10;98.20;;;;;;5077870;28;20063;-84
2021/11/11 02:12:14;;;;;;;20.60;12.68;;;7.10;98.30;;;;;;5078633;28;20058;-84
2021/11/11 02:14:40;;;;;;;21.42;12.35;;;7.10;98.40;;;;;;5059206;28;20080;-83
2021/11/11 02:17:25;;;;;;;20.27;12.75;;;7.10;98.40;;;;;;5050216;28;20029;-84
2021/11/11 02:20:28;;;;;;;21.63;12.40;;;7.00;98.50;;;;;;5075262;28;20024;-83
2021/11/11 02:22:56;;;;;;;21.75;12.75;;;7.00;98.60;;;;;;5072876;28;20012;-83
2021/11/11 02:25:23;;;;;;;23.15;13.15;;;7.00;98.70;;;;;;5088894;28;20080;-83
2021/11/11 02:27:52;;;;;;;23.08;13.25;;;7.00;98.70;;;;;;5084561;28;20020;-88
2021/11/11 02:30:20;;;;;;;23.23;12.90;;;7.00;98.80;;;;;;5046355;28;20125;-88
2021/11/11 02:32:46;;;;;;;22.48;13.18;;;7.00;99.00;;;;;;5050239;28;20028;-88
2021/11/11 02:35:14;;;;;;;23.15;14.32;;;7.00;98.90;;;;;;5063376;28;20021;-88
2021/11/11 02:37:41;;;;;;;24.25;13.80;;;7.00;98.90;;;;;;5058693;28;20021;-88
2021/11/11 02:40:19;;;;;;;24.05;12.80;;;7.00;99.00;;;;;;5075049;28;20044;-88
2021/11/11 02:42:46;;;;;;;22.38;14.15;;;6.90;99.00;;;;;;5059216;28;20076;-87
2021/11/11 02:45:17;;;;;;;23.25;13.85;;;7.00;99.10;;;;;;5048556;28;20016;-88
2021/11/11 02:47:43;;;;;;;;;;;7.00;99.20;;;;;;5056539;28;20074;-87
2021/11/11 02:50:11;;;;;;;22.55;13.25;;;7.00;99.30;;;;;;5040295;28;19908;-87
2021/11/11 02:52:40;;;;;;;23.88;12.88;;;7.00;99.30;;;;;;5039005;28;20144;-87
2021/11/11 02:55:07;;;;;;;21.02;13.00;;;7.00;99.30;;;;;;5066564;28;20020;-84
2021/11/11 02:57:35;;;;;;;23.35;13.32;;;7.10;99.30;;;;;;5096821;28;20008;-83
2021/11/11 03:00:16;;;;;;;24.05;13.93;;;7.00;99.40;;;;;;5079943;28;20120;-84
2021/11/11 03:02:44;;;;;;;;;;;7.10;99.30;;;;;;5086933;28;20024;-84
2021/11/11 03:05:16;;;;;;;24.90;13.10;;;7.10;99.40;;;;;;5083448;28;19908;-84
2021/11/11 03:07:42;;;;;;;22.13;13.82;;;7.10;99.30;;;;;;5069526;28;20029;-84
2021/11/11 03:10:11;;;;;;;30.33;16.05;;;7.10;99.40;;;;;;5070082;28;20029;-84
2021/11/11 03:12:37;;;;;;;24.92;13.55;;;7.10;99.40;;;;;;5069463;28;20020;-84
2021/11/11 03:15:04;;;;;;;27.23;15.40;;;7.10;99.50;;;;;;5067221;28;20021;-84
2021/11/11 03:17:29;;;;;;;23.77;14.52;;;7.10;99.50;;;;;;5049460;28;20021;-83
2021/11/11 03:19:55;;;;;;;27.33;13.75;;;7.10;99.50;;;;;;5063460;28;20024;-87
2021/11/11 03:22:21;;;;;;;24.42;14.23;;;7.10;99.60;;;;;;5067700;28;20029;-88
2021/11/11 03:24:52;;;;;;;26.60;13.68;;;7.10;99.60;;;;;;5048782;28;20480;-88
2021/11/11 03:27:19;;;;;;;26.13;14.93;;;7.00;99.50;;;;;;5068303;28;20037;-88
2021/11/11 03:29:46;;;;;;;27.85;15.10;;;7.00;99.50;;;;;;5082426;28;20039;-88
2021/11/11 03:32:13;;;;;;;27.58;15.48;;;7.00;99.50;;;;;;5034167;28;20033;-88
2021/11/11 03:34:40;;;;;;;23.55;14.65;;;7.00;99.60;;;;;;5034271;28;20041;-88
2021/11/11 03:37:07;;;;;;;25.27;14.10;;;7.00;99.60;;;;;;5067568;28;20017;-83
2021/11/11 03:39:34;;;;;;;22.33;14.05;;;7.00;99.60;;;;;;5052803;28;20028;-83
2021/11/11 03:42:02;;;;;;;24.88;14.25;;;7.00;99.50;;;;;;5037804;28;20056;-84
2021/11/11 03:44:28;;;;;;;25.77;14.82;;;7.00;99.40;;;;;;5067391;28;20084;-84
2021/11/11 03:47:32;;;;;;;25.90;14.35;;;7.00;99.40;;;;;;5060769;28;20029;-83
2021/11/11 03:49:58;;;;;;;24.23;15.07;;;7.00;99.40;;;;;;5089718;28;20035;-83
2021/11/11 03:52:24;;;;;;;24.98;14.43;;;7.00;99.50;;;;;;5071374;28;20056;-84
2021/11/11 03:54:49;;;;;;;23.63;15.15;;;7.00;99.80;;;;;;5066316;28;20120;-83
2021/11/11 03:57:15;;;;;;;25.40;14.90;;;7.00;99.50;;;;;;5091718;28;20024;-84
2021/11/11 03:59:41;;;;;;;21.35;13.13;;;7.00;99.40;;;;;;5056392;28;20123;-84
2021/11/11 04:02:06;;;;;;;24.63;13.57;;;7.00;99.40;;;;;;5054024;28;20029;-84
2021/11/11 04:04:33;;;;;;;26.70;15.32;;;7.00;99.40;;;;;;5058268;28;20020;-84
2021/11/11 04:06:59;;;;;;;26.52;14.77;;;6.90;99.30;;;;;;5073072;28;20028;-84
2021/11/11 04:09:25;;;;;;;24.30;14.77;;;6.90;99.30;;;;;;5044539;28;20031;-83
2021/11/11 04:11:51;;;;;;;24.10;14.20;;;6.90;99.30;;;;;;5055331;28;20078;-83
2021/11/11 04:14:18;;;;;;;25.83;15.18;;;7.00;99.30;;;;;;5090107;28;20024;-84
2021/11/11 04:16:45;;;;;;;25.50;14.02;;;6.90;99.30;;;;;;5070479;28;20036;-84
2021/11/11 04:19:11;;;;;;;23.90;14.13;;;6.90;99.40;;;;;;5071387;28;20024;-84
2021/11/11 04:21:53;;;;;;;24.88;13.95;;;6.90;99.40;;;;;;5070556;28;20024;-83
2021/11/11 04:24:18;;;;;;;26.42;15.43;;;6.90;99.50;;;;;;5069721;28;20029;-83
2021/11/11 04:29:31;;;;;;;23.55;14.18;;;7.00;99.60;;;;;;5091085;28;20032;-83
2021/11/11 04:31:59;;;;;;;26.30;15.25;;;6.90;99.50;;;;;;5073246;28;20024;-84
2021/11/11 04:34:26;;;;;;;21.55;14.25;;;7.00;99.60;;;;;;5074840;28;20370;-83
2021/11/11 05:05:36;;;;;;;25.75;14.57;;;7.10;99.90;;;;;;4986770;28;20038;-90
2021/11/11 05:08:02;;;;;;;23.17;13.68;;;7.10;99.90;;;;;;4968228;28;20029;-90
2021/11/11 05:10:28;;;;;;;28.60;15.02;;;7.10;99.90;;;;;;5003859;28;20034;-90
2021/11/11 05:12:55;;;;;;;25.00;14.57;;;7.10;99.90;;;;;;4995300;28;20491;-90
2021/11/11 05:15:21;;;;;;;23.90;13.43;;;7.10;99.90;;;;;;4995535;28;20476;-90
2021/11/11 05:17:47;;;;;;;25.30;15.00;;;7.10;99.90;;;;;;5011827;28;20468;-90
2021/11/11 05:23:29;;;;;;;26.02;14.85;;;7.10;99.90;;;;;;4976454;28;20046;-95
2021/11/11 05:25:56;;;;;;;26.27;14.80;;;7.10;99.90;;;;;;5012601;28;20037;-95
2021/11/11 05:28:22;;;;;;;24.50;14.82;;;7.10;99.90;;;;;;5008579;28;20026;-90
2021/11/11 05:30:47;;;;;;;22.98;14.57;;;7.10;99.90;;;;;;5006382;28;20029;-90
2021/11/11 05:33:13;;;;;;;23.45;14.38;;;7.10;99.90;;;;;;5014199;28;20028;-90
2021/11/11 05:35:39;;;;;;;22.83;14.85;;;7.10;99.90;;;;;;4989522;28;20021;-89
2021/11/11 05:38:05;;;;;;;23.88;14.85;;;7.10;99.90;;;;;;4994469;28;20018;-90
2021/11/11 05:40:32;;;;;;;26.63;15.93;;;7.10;99.90;;;;;;5010351;28;20109;-90
2021/11/11 05:42:58;;;;;;;27.45;15.35;;;7.10;99.90;;;;;;4999355;28;20034;-90
2021/11/11 05:45:27;;;;;;;23.75;14.82;;;7.20;99.90;;;;;;4997373;28;20031;-89
2021/11/11 05:47:52;;;;;;;27.27;15.82;;;7.10;99.90;;;;;;4990658;28;20050;-90
2021/11/11 05:50:19;;;;;;;25.45;14.63;;;7.20;99.90;;;;;;4978830;28;20487;-89
2021/11/11 05:52:46;;;;;;;26.33;15.40;;;7.20;99.90;;;;;;4995201;28;20073;-90
2021/11/11 05:55:12;;;;;;;29.85;15.88;;;7.20;99.90;;;;;;4994906;28;20113;-90
2021/11/11 05:57:38;;;;;;;24.80;15.52;;;7.20;99.90;;;;;;4994191;28;20086;-88
2021/11/11 06:00:08;;;;;;;29.60;16.42;;;7.20;99.90;;;;;;4985134;28;20052;-88
2021/11/11 06:02:34;;;;;;;29.95;15.45;;;7.20;99.90;;;;;;4995749;28;20391;-90
2021/11/11 06:05:00;;;;;;;25.45;15.70;;;7.20;99.90;;;;;;4994002;28;20077;-90
2021/11/11 06:07:26;;;;;;;25.08;15.95;;;7.20;99.90;;;;;;4991613;28;20117;-90
2021/11/11 06:09:51;;;;;;;27.60;15.48;;;7.30;99.90;;;;;;4982219;28;20030;-89
2021/11/11 06:12:17;;;;;;;23.77;14.20;;;7.30;99.90;;;;;;4968114;28;20041;-88
2021/11/11 06:14:43;;;;;;;26.80;15.38;;;7.30;99.90;;;;;;4978046;28;20460;-90
2021/11/11 06:17:09;;;;;;;27.77;16.33;;;7.30;99.90;;;;;;4986244;28;20535;-89
2021/11/11 06:19:36;;;;;;;27.42;16.38;;;7.30;99.90;;;;;;4996275;28;20039;-90
2021/11/11 06:22:06;;;;;;;28.88;16.42;;;7.30;99.90;;;;;;4994484;28;20029;-90
2021/11/11 06:24:32;;;;;;;30.90;16.40;;;7.30;99.90;;;;;;4994099;28;20502;-90
2021/11/11 06:26:58;;;;;;;27.70;16.55;;;7.30;99.90;;;;;;4994017;28;20057;-90
2021/11/11 06:29:24;;;;;;;29.13;16.50;;;7.30;99.90;;;;;;4993775;28;20062;-89
2021/11/11 06:31:49;;;;;;;28.77;16.52;;;7.30;99.90;;;;;;4977437;28;20026;-89
2021/11/11 06:34:15;;;;;;;29.48;16.02;;;7.30;99.90;;;;;;4993625;28;20093;-89
2021/11/11 06:36:51;;;;;;;33.42;17.23;;;7.30;99.90;;;;;;5014068;28;20038;-95
2021/11/11 06:42:45;;;;;;;27.35;15.82;;;7.30;99.90;;;;;;4967910;29;20038;-90
2021/11/11 06:45:12;;;;;;;26.67;14.75;;;7.30;99.90;;;;;;4984485;28;20035;-90
2021/11/11 06:47:38;;;;;;;27.75;14.73;;;7.20;99.90;;;;;;4989634;28;20102;-90
2021/11/11 06:50:06;;;;;;;25.42;15.40;;;7.30;99.90;;;;;;4995922;28;20088;-88
2021/11/11 06:52:32;;;;;;;26.08;14.60;;;7.30;99.90;;;;;;4993453;28;20049;-88
2021/11/11 06:55:21;;;;;;;23.48;14.93;;;7.20;99.90;;;;;;4977097;28;20468;-88
2021/11/11 06:57:47;;;;;;;27.13;15.63;;;7.20;99.90;;;;;;5006129;28;20041;-88
2021/11/11 07:00:13;;;;;;;26.25;14.73;;;7.20;99.90;;;;;;5015575;28;20030;-88
2021/11/11 07:02:39;;;;;;;21.40;14.18;;;7.30;99.90;;;;;;5000853;28;20030;-88
2021/11/11 07:05:05;;;;;;;24.50;14.43;;;7.30;99.90;;;;;;5001832;28;20441;-88
2021/11/11 07:07:31;;;;;;;24.88;13.95;;;7.30;99.90;;;;;;5017273;28;20022;-89
2021/11/11 07:09:58;;;;;;;26.67;14.82;;;7.30;99.90;;;;;;5016724;28;20033;-88
2021/11/11 07:12:24;;;;;;;28.65;15.75;;;7.30;99.90;;;;;;5016928;28;20077;-88
2021/11/11 07:14:50;;;;;;;28.92;15.82;;;7.30;99.90;;;;;;4992492;28;20427;-88
2021/11/11 07:17:16;;;;;;;28.40;15.48;;;7.30;99.90;;;;;;5011666;28;20076;-88
2021/11/11 07:19:42;;;;;;;26.98;16.40;;;7.30;99.90;;;;;;5016554;28;20026;-88
2021/11/11 07:22:17;;;;;;;28.42;14.70;;;7.30;99.90;;;;;;5017022;28;20089;-88
2021/11/11 07:24:43;;;;;;;28.63;15.95;;;7.30;99.90;;;;;;5017146;28;20044;-88
2021/11/11 07:27:09;;;;;;;25.65;15.73;;;7.30;99.90;;;;;;5000097;28;20022;-88
2021/11/11 07:29:34;;;;;;;28.50;16.13;;;7.30;99.90;;;;;;4999319;28;20034;-88
2021/11/11 07:32:00;;;;;;;27.85;16.70;;;7.40;99.90;;;;;;5016924;28;20048;-88
2021/11/11 07:34:29;;;;;;;33.08;17.88;;;7.30;99.90;;;;;;5018817;28;20042;-88
2021/11/11 07:36:55;;;;;;;29.88;18.98;;;7.30;99.90;;;;;;5000878;28;20022;-88
2021/11/11 07:39:22;;;;;;;30.15;17.48;;;7.20;99.90;;;;;;5002821;28;20027;-88
2021/11/11 07:41:50;;;;;;;26.33;16.10;;;7.20;99.90;;;;;;5016762;28;20504;-89
2021/11/11 07:44:16;;;;;;;29.25;16.00;;;7.20;99.90;;;;;;5016813;28;20479;-88
2021/11/11 07:46:42;;;;;;;31.27;17.30;;;7.30;99.90;;;;;;5003154;28;20111;-88
2021/11/11 07:49:09;;;;;;;29.60;17.08;;;7.30;99.90;;;;;;5016383;28;20356;-88
2021/11/11 07:51:35;;;;;;;31.25;17.17;;;7.30;99.90;;;;;;5017187;28;20383;-88
2021/11/11 07:54:04;;;;;;;28.95;16.15;;;7.30;99.90;;;;;;5017490;28;20018;-88
2021/11/11 07:57:03;;;;;;;32.53;17.55;;;7.30;99.90;;;;;;5016365;28;20057;-88
2021/11/11 07:59:29;;;;;;;28.95;17.50;;;7.30;99.90;;;;;;5019446;28;20034;-89
2021/11/11 08:01:55;;;;;;;32.38;18.73;;;7.30;99.90;;;;;;5003958;28;20042;-88
2021/11/11 08:04:20;;;;;;;28.02;16.27;;;7.30;99.90;;;;;;5032483;28;20026;-88
2021/11/11 08:06:46;;;;;;;26.38;16.42;;;7.30;99.90;;;;;;5004587;28;20356;-88
2021/11/11 08:09:12;;;;;;;27.85;16.83;;;7.30;99.90;;;;;;5016219;28;20040;-88
2021/11/11 08:11:40;;;;;;;29.23;15.73;;;7.40;99.90;;;;;;5014101;28;20080;-87
2021/11/11 08:14:08;;;;;;;25.85;16.70;;;7.40;99.90;;;;;;5015263;28;20037;-88
2021/11/11 08:16:34;;;;;;;30.35;17.83;;;7.40;99.90;;;;;;4999338;28;20041;-88
2021/11/11 08:19:00;;;;;;;27.45;17.17;;;7.50;99.90;;;;;;5015916;28;20490;-88
2021/11/11 08:21:25;;;;;;;29.55;16.23;;;7.50;99.90;;;;;;5016448;28;20483;-88
2021/11/11 08:24:41;;;;;;;31.33;17.23;;;7.50;99.90;;;;;;5017128;28;20036;-88
2021/11/11 08:27:09;;;;;;;26.50;16.73;;;7.50;99.90;;;;;;5001114;28;20483;-88
2021/11/11 08:29:35;;;;;;;27.17;17.15;;;7.50;99.90;;;;;;5007911;28;20061;-88
2021/11/11 08:32:04;;;;;;;27.13;16.13;;;7.50;99.90;;;;;;4998850;28;20125;-89
2021/11/11 08:34:30;;;;;;;30.23;16.75;;;7.50;99.90;;;;;;4999404;28;20022;-89
2021/11/11 08:36:55;;;;;;;27.55;16.90;;;7.50;99.90;;;;;;5028895;28;20026;-88
2021/11/11 08:39:27;;;;;;;24.92;16.65;;;7.60;99.90;;;;;;5003954;28;20057;-88
2021/11/11 08:41:56;;;;;;;26.60;16.20;;;7.60;99.90;;;;;;5009326;28;20419;-88
2021/11/11 08:44:23;;;;;;;27.55;16.80;;;7.60;99.90;;;;;;5005972;28;20038;-88
2021/11/11 08:46:51;;;;;;;29.30;17.23;;;7.60;99.90;;;;;;5014795;28;20121;-88
2021/11/11 08:49:18;;;;;;;28.90;18.38;;;7.60;99.90;;;;;;5014735;28;20026;-85
2021/11/11 08:51:45;;;;;;;28.20;17.85;;;7.60;99.90;;;;;;5014289;28;20030;-87
2021/11/11 08:54:11;;;;;;;31.48;18.05;;;7.70;99.90;;;;;;5014960;28;20026;-88
2021/11/11 08:56:38;;;;;;;29.15;17.58;;;7.70;99.90;;;;;;5015929;28;20049;-88
2021/11/11 08:59:04;;;;;;;32.33;19.83;;;7.60;99.90;;;;;;5031526;28;20066;-88
2021/11/11 09:01:31;;;;;;;34.92;20.23;;;7.70;99.90;;;;;;5022672;28;20022;-87
2021/11/11 09:03:58;;;;;;;30.90;19.55;;;7.70;99.90;;;;;;5015700;28;20050;-87
2021/11/11 09:06:26;;;;;;;31.98;17.92;;;7.70;99.90;;;;;;4988209;28;20018;-87
2021/11/11 09:08:52;;;;;;;29.15;18.98;;;7.70;99.90;;;;;;4998624;28;20014;-87
2021/11/11 09:11:24;;;;;;;34.00;19.77;;;7.70;99.90;;;;;;5014573;28;20419;-87
2021/11/11 09:13:50;;;;;;;31.70;20.67;;;7.70;99.90;;;;;;5014321;28;20140;-87
2021/11/11 09:16:16;;;;;;;33.10;19.35;;;7.70;99.90;;;;;;5014466;28;20026;-85
2021/11/11 09:18:42;;;;;;;32.50;19.77;;;7.80;99.90;;;;;;5014356;28;20033;-85
2021/11/11 09:21:12;;;;;;;31.17;19.05;;;7.70;99.90;;;;;;5014128;28;20053;-87
2021/11/11 09:23:40;;;;;;;32.58;18.52;;;7.80;99.90;;;;;;5014734;28;20081;-87
2021/11/11 09:26:07;;;;;;;27.15;16.95;;;7.80;99.90;;;;;;5014381;28;20033;-87
2021/11/11 09:28:35;;;;;;;29.52;18.13;;;7.80;99.90;;;;;;4989207;28;20472;-87
2021/11/11 09:31:01;;;;;;;28.90;18.00;;;7.90;99.90;;;;;;4995009;28;20101;-87
2021/11/11 09:33:27;;;;;;;29.17;17.27;;;7.90;99.90;;;;;;4990713;28;20543;-87
2021/11/11 09:35:55;;;;;;;28.55;16.90;;;7.90;99.90;;;;;;5014487;28;20468;-87
2021/11/11 09:38:23;;;;;;;31.27;18.25;;;7.90;99.90;;;;;;5013929;28;20026;-87
2021/11/11 09:40:49;;;;;;;32.58;18.35;;;8.00;99.90;;;;;;4997361;28;20022;-87
2021/11/11 09:43:15;;;;;;;38.35;20.90;;;8.00;99.90;;;;;;5014051;28;20491;-87
2021/11/11 09:45:44;;;;;;;38.45;20.50;;;8.00;99.90;;;;;;5014095;28;20068;-87
2021/11/11 09:48:10;;;;;;;35.40;20.95;;;8.00;99.90;;;;;;5014941;28;20025;-87
2021/11/11 09:50:36;;;;;;;43.47;22.55;;;8.10;99.90;;;;;;5014108;28;20036;-85
2021/11/11 09:53:10;;;;;;;41.67;21.80;;;8.10;99.90;;;;;;5014108;28;20026;-85
2021/11/11 09:58:41;;;;;;;34.90;21.15;;;8.10;99.90;;;;;;5014191;28;20103;-85
2021/11/11 10:01:20;;;;;;;33.85;20.00;;;8.10;99.90;;;;;;5013491;28;20029;-88
2021/11/11 10:03:48;;;;;;;32.25;19.58;;;8.20;99.90;;;;;;5013672;28;20526;-88
2021/11/11 10:06:17;;;;;;;34.13;20.08;;;8.10;99.90;;;;;;5005202;28;20483;-87
2021/11/11 10:09:06;;;;;;;35.78;21.20;;;8.20;99.90;;;;;;4997300;28;20026;-87
2021/11/11 10:11:49;;;;;;;40.15;21.48;;;8.20;99.90;;;;;;4997218;28;20029;-87
2021/11/11 10:14:36;;;;;;;36.78;20.60;;;8.20;99.90;;;;;;5015378;28;20025;-87
2021/11/11 10:17:07;;;;;;;36.13;19.67;;;8.30;99.90;;;;;;4997252;28;20028;-87
2021/11/11 10:19:37;;;;;;;35.40;19.92;;;8.30;99.90;;;;;;4997130;28;20014;-85
2021/11/11 10:22:11;;;;;;;34.65;19.27;;;8.30;99.90;;;;;;5013717;28;20026;-87
2021/11/11 10:24:46;;;;;;;29.23;17.88;;;8.30;99.90;;;;;;4997358;28;20025;-87
2021/11/11 10:30:04;;;;;;;37.25;19.40;;;8.30;99.90;;;;;;5015688;28;20061;-85
2021/11/11 10:32:44;;;;;;;35.67;19.23;;;8.40;99.90;;;;;;5015097;28;20022;-85
2021/11/11 10:35:17;;;;;;;34.53;19.15;;;8.40;99.90;;;;;;4994350;28;20034;-86
2021/11/11 10:38:23;;;;;;;48.58;22.80;;;8.40;99.90;;;;;;4987602;28;20469;-86
2021/11/11 10:40:57;;;;;;;39.65;21.50;;;8.50;99.90;;;;;;4943519;29;20027;-86
2021/11/11 10:43:27;;;;;;;42.22;22.10;;;8.50;99.90;;;;;;4978278;28;20117;-86
2021/11/11 10:45:55;;;;;;;39.83;21.80;;;8.50;99.90;;;;;;4985627;28;20141;-86
2021/11/11 10:48:25;;;;;;;32.03;19.98;;;8.50;99.90;;;;;;5019281;28;20026;-86
2021/11/11 10:51:05;;;;;;;40.28;21.15;;;8.60;99.90;;;;;;5017717;28;20030;-87
2021/11/11 10:53:34;;;;;;;41.53;21.92;;;8.60;99.90;;;;;;5002065;28;20427;-86
2021/11/11 10:56:02;;;;;;;36.90;21.50;;;8.60;99.90;;;;;;5001360;28;20054;-86
2021/11/11 10:58:31;;;;;;;38.17;21.30;;;8.70;99.90;;;;;;5001911;28;20026;-86
2021/11/11 11:01:03;;;;;;;36.83;21.52;;;8.70;99.90;;;;;;5019237;28;20022;-86
2021/11/11 11:03:38;;;;;;;30.67;19.67;;;8.70;99.90;;;;;;5018090;28;20084;-86
2021/11/11 11:06:15;;;;;;;36.22;19.98;;;8.80;99.90;;;;;;5027535;28;20052;-86
2021/11/11 11:08:50;;;;;;;37.05;21.65;;;8.80;99.90;;;;;;5004187;28;20058;-86
2021/11/11 11:11:29;;;;;;;37.10;22.15;;;8.90;99.90;;;;;;5002141;28;20029;-86
2021/11/11 11:14:00;;;;;;;39.38;20.75;;;8.90;99.90;;;;;;5033894;28;20056;-86
2021/11/11 11:16:34;;;;;;;45.33;21.40;;;8.90;99.90;;;;;;5035644;28;20022;-86
2021/11/11 11:19:09;;;;;;;34.80;20.35;;;9.00;99.90;;;;;;5037385;28;20014;-87
2021/11/11 11:21:49;;;;;;;29.83;18.77;;;9.00;99.90;;;;;;5036582;28;20026;-87
2021/11/11 11:24:53;;;;;;;37.92;21.15;;;9.00;99.90;;;;;;5017756;28;20086;-84
2021/11/11 11:27:35;;;;;;;33.00;18.20;;;9.10;99.90;;;;;;5033804;28;20076;-87
2021/11/11 11:30:12;;;;;;;28.77;18.52;;;9.10;99.90;;;;;;5038250;28;20017;-87
2021/11/11 11:32:42;;;;;;;34.00;19.50;;;9.10;99.90;;;;;;5017143;28;20534;-87
2021/11/11 11:35:09;;;;;;;34.08;19.30;;;9.10;99.90;;;;;;5022611;28;20022;-87
2021/11/11 11:37:35;;;;;;;36.20;20.90;;;9.20;99.90;;;;;;5016592;28;20025;-87
2021/11/11 11:40:09;;;;;;;35.40;21.10;;;9.20;99.90;;;;;;5031022;28;20049;-87
2021/11/11 11:42:39;;;;;;;37.72;20.48;;;9.20;99.90;;;;;;5036014;28;20085;-87
2021/11/11 11:45:11;;;;;;;36.10;19.48;;;9.20;99.90;;;;;;5023207;28;20026;-87
2021/11/11 11:47:53;;;;;;;37.10;20.75;;;9.30;99.90;;;;;;5039491;28;20006;-87
2021/11/11 11:50:48;;;;;;;36.22;20.27;;;9.30;99.90;;;;;;5039459;28;20002;-87
2021/11/11 11:53:16;;;;;;;36.38;20.83;;;9.30;99.90;;;;;;5039352;28;20045;-88
2021/11/11 11:56:40;;;;;;;34.53;20.30;;;9.30;99.90;;;;;;5034647;28;20018;-88
2021/11/11 11:59:11;;;;;;;44.70;22.42;;;9.40;99.90;;;;;;5009171;28;20062;-88
2021/11/11 12:01:53;;;;;;;37.65;22.25;;;9.40;99.90;;;;;;5014980;28;20054;-87
2021/11/11 12:09:59;;;;;;;35.53;22.50;;;9.50;99.90;;;;;;5010783;28;20031;-87
2021/11/11 12:41:10;;;;;;;27.05;17.42;;;9.80;99.90;;;;;;4958310;29;19914;-87
2021/11/11 12:43:37;;;;;;;33.45;18.98;;;9.90;99.90;;;;;;4991773;28;20035;-87
2021/11/11 12:46:04;;;;;;;30.15;18.50;;;9.90;99.90;;;;;;5007669;28;20113;-87
2021/11/11 12:48:31;;;;;;;32.70;20.33;;;9.90;99.90;;;;;;4996481;28;20036;-87
2021/11/11 12:50:59;;;;;;;33.67;19.77;;;10.00;99.90;;;;;;4996717;28;20023;-87
2021/11/11 12:53:43;;;;;;;29.58;18.40;;;10.00;99.90;;;;;;4997920;28;20034;-86
2021/11/11 12:56:11;;;;;;;37.25;20.02;;;10.00;99.90;;;;;;4996909;28;20026;-87
2021/11/11 12:59:02;;;;;;;32.90;21.13;;;10.00;99.90;;;;;;5025029;28;20046;-87
2021/11/11 13:01:30;;;;;;;;;;;10.00;99.90;;;;;;5015776;28;20509;-87
2021/11/11 13:04:02;;;;;;;31.98;18.85;;;10.10;99.90;;;;;;5016034;28;19905;-87
2021/11/11 13:06:46;;;;;;;30.98;18.77;;;10.10;99.90;;;;;;5015680;28;20032;-87
2021/11/11 13:09:51;;;;;;;34.85;20.80;;;10.10;99.90;;;;;;5020955;28;20032;-85
2021/11/11 13:12:17;;;;;;;33.65;20.73;;;10.10;99.90;;;;;;5017022;28;20487;-85
2021/11/11 13:15:04;;;;;;;35.22;20.88;;;10.20;99.90;;;;;;5017124;28;20426;-85
2021/11/11 13:17:44;;;;;;;34.08;19.77;;;10.20;99.90;;;;;;5028990;28;20025;-84
2021/11/11 13:20:28;;;;;;;31.60;20.00;;;10.20;99.90;;;;;;5035935;28;20022;-85
2021/11/11 14:28:03;;;;;;;27.75;18.02;;;10.60;99.90;;;;;;5034597;28;20160;-86
2021/11/11 15:16:58;;;;;;;34.85;20.88;;;10.90;99.90;;;;;;5014413;28;20117;-83
2021/11/11 16:22:03;;;;;;;30.00;18.80;;;10.90;99.80;;;;;;4987444;28;20040;-85
2021/11/11 16:25:02;;;;;;;33.15;21.25;;;10.90;99.80;;;;;;4995948;28;20046;-85
2021/11/11 16:27:29;;;;;;;31.65;21.83;;;10.80;99.70;;;;;;4985291;28;20031;-86
2021/11/11 16:30:06;;;;;;;37.03;21.75;;;10.80;99.90;;;;;;4995728;28;20396;-87
2021/11/11 16:32:32;;;;;;;32.53;22.17;;;10.80;99.80;;;;;;4994692;28;20027;-87
2021/11/11 16:34:58;;;;;;;33.65;21.98;;;10.80;99.80;;;;;;4995456;28;20021;-86
2021/11/11 16:37:24;;;;;;;39.00;21.67;;;10.70;99.90;;;;;;4991875;28;20146;-86
2021/11/11 16:39:50;;;;;;;30.60;21.73;;;10.70;99.70;;;;;;4991077;28;20506;-87
2021/11/11 16:42:16;;;;;;;34.92;22.52;;;10.70;99.80;;;;;;4992053;28;20031;-86
2021/11/11 16:44:41;;;;;;;35.25;21.67;;;10.70;99.90;;;;;;4988835;28;20451;-86
2021/11/11 16:47:09;;;;;;;34.33;22.90;;;10.70;99.90;;;;;;4975326;28;20045;-87
2021/11/11 16:49:35;;;;;;;33.03;21.80;;;10.60;99.90;;;;;;4970545;28;20106;-86
2021/11/11 16:52:01;;;;;;;35.13;23.08;;;10.60;99.90;;;;;;4994992;28;20106;-85
2021/11/11 16:54:27;;;;;;;39.00;23.30;;;10.60;99.90;;;;;;4973548;28;20118;-86
2021/11/11 16:56:54;;;;;;;33.85;23.27;;;10.60;99.90;;;;;;4997064;28;20484;-86
2021/11/11 16:59:20;;;;;;;36.30;22.02;;;10.60;99.90;;;;;;4994846;28;20030;-85
2021/11/11 17:01:46;;;;;;;37.50;23.45;;;10.60;99.90;;;;;;5008473;28;20049;-87
2021/11/11 17:04:12;;;;;;;35.65;24.30;;;10.60;99.90;;;;;;4995124;28;20114;-88